Time;durP1;ratioP1;P1;durP2;ratioP2;P2;SDS_P1;SDS_P2;PMS_P1;PMS_P2;Temp;Humidity;BMP_temperature;BMP_pressure;BME280_temperature;BME280_humidity;BME280_pressure;Samples;Min_cycle;Max_cycle;Signal;HPM_P1;HPM_P2
2023/09/25 00:01:16;;;;;;;0.10;0.10;;;14.80;99.90;;;;;;5012330;28;20065;-81
2023/09/25 00:03:42;;;;;;;0.00;0.00;;;14.70;99.90;;;;;;5012102;28;20033;-81
2023/09/25 00:06:08;;;;;;;0.22;0.22;;;14.80;99.90;;;;;;5012398;28;20467;-81
2023/09/25 00:08:35;;;;;;;0.00;0.00;;;14.80;99.90;;;;;;5012525;28;20026;-82
2023/09/25 00:11:00;;;;;;;0.10;0.10;;;14.90;99.90;;;;;;5012189;28;20586;-81
2023/09/25 00:13:26;;;;;;;0.00;0.00;;;14.90;99.90;;;;;;5012166;28;20042;-81
2023/09/25 00:15:52;;;;;;;0.00;0.00;;;14.90;99.90;;;;;;5010965;28;20053;-81
2023/09/25 00:18:18;;;;;;;0.13;0.13;;;14.90;99.90;;;;;;5011965;28;20056;-82
2023/09/25 00:20:44;;;;;;;0.00;0.00;;;14.90;99.90;;;;;;5012476;28;20037;-82
2023/09/25 00:23:10;;;;;;;0.15;0.15;;;14.80;99.90;;;;;;5011948;28;20113;-81
2023/09/25 00:25:36;;;;;;;0.00;0.00;;;14.70;99.90;;;;;;5012154;28;20041;-80
2023/09/25 00:28:02;;;;;;;0.10;0.10;;;14.70;99.90;;;;;;5012177;28;20416;-81
2023/09/25 00:30:28;;;;;;;0.35;0.30;;;14.70;99.90;;;;;;5011929;28;20034;-82
2023/09/25 00:32:55;;;;;;;2.60;0.30;;;14.70;99.90;;;;;;5011755;28;20022;-82
2023/09/25 00:35:21;;;;;;;0.08;0.08;;;14.70;99.90;;;;;;5026934;28;20061;-81
2023/09/25 00:37:47;;;;;;;0.10;0.10;;;14.60;99.90;;;;;;5012105;28;20374;-82
2023/09/25 00:40:13;;;;;;;0.10;0.10;;;14.50;99.90;;;;;;5011604;28;20026;-82
2023/09/25 00:42:41;;;;;;;0.22;0.22;;;14.40;99.90;;;;;;5012025;28;20387;-83
2023/09/25 00:45:08;;;;;;;0.08;0.08;;;14.40;99.90;;;;;;5010511;28;20030;-82
2023/09/25 00:47:34;;;;;;;0.13;0.13;;;14.40;99.90;;;;;;5011548;28;20053;-82
2023/09/25 00:50:04;;;;;;;0.30;0.30;;;14.30;99.90;;;;;;5011482;28;20049;-81
2023/09/25 00:52:33;;;;;;;0.65;0.40;;;14.30;99.90;;;;;;5026339;28;20550;-82
2023/09/25 00:55:00;;;;;;;0.13;0.13;;;14.30;99.90;;;;;;5009810;28;20211;-77
2023/09/25 00:57:26;;;;;;;0.10;0.10;;;14.40;99.90;;;;;;5010630;28;20037;-79
2023/09/25 00:59:52;;;;;;;0.10;0.10;;;14.40;99.90;;;;;;5009965;28;20034;-79
2023/09/25 01:02:18;;;;;;;0.30;0.30;;;14.30;99.90;;;;;;5011518;28;20025;-79
2023/09/25 01:04:44;;;;;;;0.08;0.08;;;14.30;99.90;;;;;;5011661;28;20033;-80
2023/09/25 01:07:10;;;;;;;0.10;0.10;;;14.40;99.90;;;;;;5011633;28;20466;-80
2023/09/25 01:09:36;;;;;;;0.10;0.10;;;14.40;99.90;;;;;;5011223;28;20036;-80
2023/09/25 01:12:04;;;;;;;0.00;0.00;;;14.50;99.90;;;;;;5011848;28;20028;-79
2023/09/25 01:14:31;;;;;;;0.00;0.00;;;14.40;99.90;;;;;;5011317;28;20043;-81
2023/09/25 01:16:57;;;;;;;0.00;0.00;;;14.40;99.90;;;;;;5009930;28;20528;-80
2023/09/25 01:19:23;;;;;;;0.05;0.05;;;14.40;99.90;;;;;;5026656;28;20103;-81
2023/09/25 01:21:49;;;;;;;0.00;0.00;;;14.40;99.90;;;;;;5010201;28;20431;-79
2023/09/25 01:24:15;;;;;;;0.10;0.10;;;14.30;99.90;;;;;;5026222;28;20692;-79
2023/09/25 01:26:40;;;;;;;0.25;0.25;;;14.20;99.90;;;;;;5009942;28;20386;-80
2023/09/25 01:29:06;;;;;;;0.08;0.08;;;14.40;99.90;;;;;;5011186;28;20058;-75
2023/09/25 01:31:32;;;;;;;0.00;0.00;;;14.40;99.90;;;;;;5026103;28;20030;-81
2023/09/25 01:33:58;;;;;;;0.10;0.10;;;14.50;99.90;;;;;;5010750;28;20022;-81
2023/09/25 01:36:24;;;;;;;0.00;0.00;;;14.40;99.90;;;;;;5011011;28;20543;-81
2023/09/25 01:38:50;;;;;;;0.00;0.00;;;14.30;99.90;;;;;;5009442;28;20010;-81
2023/09/25 01:41:15;;;;;;;0.00;0.00;;;14.30;99.90;;;;;;5009599;28;20034;-77
2023/09/25 01:43:44;;;;;;;0.00;0.00;;;14.40;99.90;;;;;;5010757;28;20032;-80
2023/09/25 01:46:10;;;;;;;0.00;0.00;;;14.30;99.90;;;;;;5009075;28;20056;-81
2023/09/25 01:48:36;;;;;;;0.00;0.00;;;14.10;99.90;;;;;;5025994;28;20479;-77
2023/09/25 01:51:11;;;;;;;0.00;0.00;;;14.30;99.90;;;;;;5009391;28;20037;-77
2023/09/25 01:53:37;;;;;;;0.00;0.00;;;14.50;99.90;;;;;;5010749;28;20478;-81
2023/09/25 01:56:13;;;;;;;0.50;0.50;;;14.40;99.90;;;;;;5009127;28;20133;-79
2023/09/25 01:58:43;;;;;;;0.00;0.00;;;14.40;99.90;;;;;;5025778;28;20030;-80
2023/09/25 02:01:09;;;;;;;0.00;0.00;;;14.40;99.90;;;;;;5008742;28;20037;-80
2023/09/25 02:03:35;;;;;;;0.00;0.00;;;14.30;99.90;;;;;;5009444;28;20497;-77
2023/09/25 02:06:02;;;;;;;0.10;0.10;;;14.20;99.90;;;;;;5009990;28;20524;-82
2023/09/25 02:08:29;;;;;;;0.05;0.05;;;14.20;99.90;;;;;;5009116;28;20526;-81
2023/09/25 02:10:55;;;;;;;0.00;0.00;;;14.30;99.90;;;;;;5009214;28;20018;-77
2023/09/25 02:13:21;;;;;;;0.20;0.20;;;14.10;99.90;;;;;;5010429;28;20167;-74
2023/09/25 02:15:47;;;;;;;0.00;0.00;;;14.10;99.90;;;;;;5010095;28;20049;-76
2023/09/25 02:18:13;;;;;;;0.00;0.00;;;14.30;99.90;;;;;;5025344;28;20026;-80
2023/09/25 02:20:39;;;;;;;0.10;0.10;;;14.20;99.90;;;;;;4989459;28;20498;-74
2023/09/25 02:23:06;;;;;;;0.00;0.00;;;14.10;99.90;;;;;;5004273;28;20166;-74
2023/09/25 02:25:32;;;;;;;0.20;0.20;;;14.00;99.90;;;;;;5025408;28;20041;-81
2023/09/25 02:27:57;;;;;;;0.03;0.03;;;14.10;99.90;;;;;;4998433;28;20097;-80
2023/09/25 02:30:23;;;;;;;9.85;1.77;;;14.00;99.90;;;;;;4977643;28;20033;-76
2023/09/25 02:32:49;;;;;;;0.13;0.13;;;14.00;99.90;;;;;;4997704;28;20083;-80
2023/09/25 02:35:15;;;;;;;0.00;0.00;;;13.90;99.90;;;;;;5008059;28;20037;-80
2023/09/25 02:37:41;;;;;;;0.03;0.03;;;13.90;99.90;;;;;;5008672;28;20063;-81
2023/09/25 02:40:13;;;;;;;1.20;0.73;;;13.90;99.90;;;;;;5009647;28;20034;-75
2023/09/25 02:42:39;;;;;;;0.10;0.10;;;13.80;99.90;;;;;;4985461;28;20551;-76
2023/09/25 02:45:05;;;;;;;0.55;0.55;;;13.80;99.90;;;;;;5027067;28;20375;-81
2023/09/25 02:47:31;;;;;;;0.00;0.00;;;13.80;99.90;;;;;;5023962;28;20398;-77
2023/09/25 02:49:57;;;;;;;3.40;1.55;;;13.80;99.90;;;;;;5008560;28;20036;-80
2023/09/25 02:52:23;;;;;;;0.00;0.00;;;13.80;99.90;;;;;;4992062;28;20069;-79
2023/09/25 02:54:49;;;;;;;0.15;0.15;;;13.90;99.90;;;;;;5008312;28;20022;-81
2023/09/25 02:57:14;;;;;;;0.30;0.30;;;13.80;99.90;;;;;;5009303;28;20080;-80
2023/09/25 02:59:40;;;;;;;0.00;0.00;;;13.80;99.90;;;;;;5008443;28;20026;-76
2023/09/25 03:02:07;;;;;;;0.10;0.10;;;13.90;99.90;;;;;;5008037;28;20542;-78
2023/09/25 03:04:33;;;;;;;0.47;0.47;;;13.90;99.90;;;;;;5009782;28;20030;-75
2023/09/25 03:06:59;;;;;;;0.20;0.20;;;13.80;99.90;;;;;;5008133;28;20034;-78
2023/09/25 03:09:25;;;;;;;0.10;0.10;;;13.90;99.90;;;;;;4992114;28;20123;-78
2023/09/25 03:11:51;;;;;;;0.00;0.00;;;14.00;99.90;;;;;;5009465;28;20030;-79
2023/09/25 03:14:16;;;;;;;0.40;0.38;;;13.90;99.90;;;;;;5009448;28;20022;-80
2023/09/25 03:16:42;;;;;;;0.10;0.10;;;13.70;99.90;;;;;;5009439;28;20395;-80
2023/09/25 03:19:08;;;;;;;0.38;0.38;;;13.80;99.90;;;;;;5011510;28;20129;-81
2023/09/25 03:21:34;;;;;;;0.10;0.10;;;13.80;99.90;;;;;;5012867;28;20038;-75
2023/09/25 03:24:00;;;;;;;0.40;0.40;;;13.80;99.90;;;;;;5011372;28;20010;-75
2023/09/25 03:26:26;;;;;;;0.10;0.10;;;13.80;99.90;;;;;;5011377;28;20476;-75
2023/09/25 03:28:52;;;;;;;0.32;0.32;;;13.80;99.90;;;;;;5012682;28;20026;-74
2023/09/25 03:31:18;;;;;;;0.10;0.10;;;13.70;99.90;;;;;;5011494;28;20029;-80
2023/09/25 03:33:44;;;;;;;0.10;0.10;;;13.70;99.90;;;;;;5012853;28;20391;-74
2023/09/25 03:36:11;;;;;;;0.10;0.10;;;13.60;99.90;;;;;;4994643;28;20038;-75
2023/09/25 03:38:37;;;;;;;0.52;0.32;;;13.70;99.90;;;;;;5012692;28;20545;-81
2023/09/25 03:41:03;;;;;;;0.03;0.03;;;13.70;99.90;;;;;;5010935;28;20030;-76
2023/09/25 03:43:29;;;;;;;0.00;0.00;;;13.70;99.90;;;;;;5011248;28;20038;-75
2023/09/25 03:45:55;;;;;;;43.42;2.05;;;13.90;99.90;;;;;;5011195;28;20056;-74
2023/09/25 03:48:22;;;;;;;0.10;0.10;;;13.90;99.90;;;;;;5011327;28;20026;-81
2023/09/25 03:50:47;;;;;;;0.10;0.10;;;13.90;99.90;;;;;;5011360;28;20030;-80
2023/09/25 03:53:13;;;;;;;1.40;1.30;;;13.90;99.90;;;;;;5010973;28;20566;-81
2023/09/25 03:55:40;;;;;;;0.00;0.00;;;13.80;99.90;;;;;;5010807;28;20034;-77
2023/09/25 03:58:06;;;;;;;0.13;0.13;;;13.70;99.90;;;;;;5010850;28;20466;-77
2023/09/25 04:00:32;;;;;;;0.10;0.10;;;13.70;99.90;;;;;;5017596;28;20041;-81
2023/09/25 04:02:58;;;;;;;0.05;0.05;;;13.80;99.90;;;;;;5011610;28;20022;-75
2023/09/25 04:05:24;;;;;;;0.00;0.00;;;13.80;99.90;;;;;;5012435;28;20037;-81
2023/09/25 04:07:50;;;;;;;0.00;0.00;;;13.80;99.90;;;;;;5012333;28;20470;-80
2023/09/25 04:10:16;;;;;;;0.30;0.30;;;14.00;99.90;;;;;;5011654;28;20044;-75
2023/09/25 04:12:41;;;;;;;0.10;0.10;;;14.00;99.90;;;;;;5012247;28;20030;-80
2023/09/25 04:15:13;;;;;;;0.10;0.10;;;13.90;99.90;;;;;;5011828;28;20117;-79
2023/09/25 04:17:40;;;;;;;0.10;0.10;;;13.80;99.90;;;;;;5012273;28;20112;-80
2023/09/25 04:20:17;;;;;;;0.10;0.10;;;13.80;99.90;;;;;;5010758;28;20124;-80
2023/09/25 04:22:45;;;;;;;0.10;0.10;;;13.90;99.90;;;;;;5012116;28;20026;-81
2023/09/25 04:25:20;;;;;;;0.00;0.00;;;13.90;99.90;;;;;;5011602;28;20026;-77
2023/09/25 04:27:48;;;;;;;0.10;0.10;;;13.80;99.90;;;;;;5011931;28;20129;-81
2023/09/25 04:30:15;;;;;;;0.30;0.30;;;13.80;99.90;;;;;;5011690;28;20022;-81
2023/09/25 04:32:44;;;;;;;0.00;0.00;;;13.70;99.90;;;;;;5012199;28;20029;-81
2023/09/25 04:35:13;;;;;;;3.30;0.52;;;13.70;99.90;;;;;;5010386;28;20037;-78
2023/09/25 04:37:39;;;;;;;0.10;0.10;;;13.60;99.90;;;;;;5012016;28;20021;-80
2023/09/25 04:40:54;;;;;;;0.63;0.63;;;13.60;99.90;;;;;;5011316;28;20038;-81
2023/09/25 04:43:00;;;;;;;0.00;0.00;;;13.60;99.90;;;;;;5022128;28;20107;-78
2023/09/25 04:45:26;;;;;;;0.00;0.00;;;13.50;99.90;;;;;;5010363;28;20030;-78
2023/09/25 04:47:52;;;;;;;0.00;0.00;;;13.50;99.90;;;;;;5011648;28;20421;-79
2023/09/25 04:50:19;;;;;;;0.10;0.10;;;13.50;99.90;;;;;;5010322;28;20030;-80
2023/09/25 04:52:45;;;;;;;0.00;0.00;;;13.50;99.90;;;;;;5010213;28;20014;-81
2023/09/25 04:55:13;;;;;;;0.10;0.10;;;13.60;99.90;;;;;;5011312;28;20042;-82
2023/09/25 04:57:43;;;;;;;0.10;0.10;;;13.70;99.90;;;;;;5011529;28;20018;-81
2023/09/25 05:02:40;;;;;;;0.30;0.30;;;13.80;99.90;;;;;;5011408;28;20041;-82
2023/09/25 05:05:06;;;;;;;0.00;0.00;;;13.80;99.90;;;;;;5011041;28;20037;-81
2023/09/25 05:07:32;;;;;;;0.10;0.10;;;13.70;99.90;;;;;;5011554;28;20033;-80
2023/09/25 05:09:58;;;;;;;0.00;0.00;;;13.60;99.90;;;;;;5010803;28;20030;-81
2023/09/25 05:12:24;;;;;;;0.03;0.03;;;13.50;99.90;;;;;;5011442;28;20061;-81
2023/09/25 05:14:50;;;;;;;0.10;0.10;;;13.50;99.90;;;;;;5009800;28;20424;-79
2023/09/25 05:17:16;;;;;;;1.65;1.55;;;13.60;99.90;;;;;;5011233;28;20037;-81
2023/09/25 05:19:42;;;;;;;0.10;0.10;;;13.40;99.90;;;;;;5011037;28;20324;-80
2023/09/25 05:22:09;;;;;;;0.10;0.10;;;13.40;99.90;;;;;;5010823;28;20105;-82
2023/09/25 05:24:35;;;;;;;0.55;0.40;;;13.50;99.90;;;;;;5010625;28;20076;-75
2023/09/25 05:27:01;;;;;;;0.10;0.10;;;13.50;99.90;;;;;;5010647;28;20099;-81
2023/09/25 05:29:27;;;;;;;0.65;0.65;;;13.50;99.90;;;;;;5010880;28;20037;-77
2023/09/25 05:31:53;;;;;;;0.00;0.00;;;13.60;99.90;;;;;;5010946;28;20026;-77
2023/09/25 05:34:18;;;;;;;0.10;0.10;;;13.60;99.90;;;;;;5010718;28;20382;-81
2023/09/25 05:36:45;;;;;;;0.20;0.20;;;13.60;99.90;;;;;;5010492;28;20087;-80
2023/09/25 05:39:11;;;;;;;0.10;0.10;;;13.50;99.90;;;;;;5008576;28;20484;-82
2023/09/25 05:41:36;;;;;;;0.00;0.00;;;13.50;99.90;;;;;;5010668;28;20026;-74
2023/09/25 05:44:02;;;;;;;0.20;0.20;;;13.70;99.90;;;;;;5010838;28;20026;-75
2023/09/25 05:46:28;;;;;;;0.10;0.10;;;13.70;99.90;;;;;;5010671;28;20480;-82
2023/09/25 05:48:54;;;;;;;0.20;0.20;;;13.70;99.90;;;;;;5010629;28;20061;-75
2023/09/25 05:51:20;;;;;;;0.55;0.55;;;13.60;99.90;;;;;;5010514;28;20486;-74
2023/09/25 05:53:47;;;;;;;0.30;0.30;;;13.60;99.90;;;;;;5009691;28;20026;-77
2023/09/25 05:56:13;;;;;;;0.40;0.40;;;13.60;99.90;;;;;;5010300;28;20529;-75
2023/09/25 05:58:39;;;;;;;0.10;0.10;;;13.60;99.90;;;;;;5010387;28;20034;-75
2023/09/25 06:01:05;;;;;;;0.05;0.05;;;13.70;99.90;;;;;;5010318;28;20045;-78
2023/09/25 06:03:31;;;;;;;0.10;0.10;;;13.70;99.90;;;;;;5010312;28;20037;-82
2023/09/25 06:05:57;;;;;;;0.98;0.35;;;13.70;99.90;;;;;;5010198;28;20033;-82
2023/09/25 06:08:23;;;;;;;1.27;0.30;;;13.80;99.90;;;;;;5035445;28;20099;-82
2023/09/25 06:10:58;;;;;;;0.40;0.32;;;13.70;99.90;;;;;;5051097;28;20499;-80
2023/09/25 06:13:24;;;;;;;0.05;0.05;;;13.70;99.90;;;;;;5019333;28;20026;-81
2023/09/25 06:15:50;;;;;;;0.35;0.35;;;13.70;99.90;;;;;;5038721;28;20497;-79
2023/09/25 06:18:16;;;;;;;1.10;1.00;;;13.60;99.90;;;;;;5029546;28;20034;-77
2023/09/25 06:20:43;;;;;;;0.20;0.20;;;13.70;99.90;;;;;;5032785;28;20114;-80
2023/09/25 06:23:09;;;;;;;0.10;0.10;;;13.80;99.90;;;;;;5063116;28;20021;-76
2023/09/25 06:25:37;;;;;;;0.40;0.40;;;13.80;99.90;;;;;;5052291;28;20094;-80
2023/09/25 06:28:04;;;;;;;0.60;0.32;;;13.90;99.90;;;;;;5042740;28;20071;-80
2023/09/25 06:30:30;;;;;;;1.65;0.88;;;14.10;99.90;;;;;;5036016;28;20421;-81
2023/09/25 06:32:56;;;;;;;1.15;0.22;;;14.00;99.90;;;;;;5091028;28;20426;-80
2023/09/25 06:35:22;;;;;;;0.45;0.45;;;14.00;99.90;;;;;;5077026;28;20035;-80
2023/09/25 06:37:48;;;;;;;0.80;0.75;;;14.00;99.90;;;;;;5035094;28;20075;-78
2023/09/25 06:40:15;;;;;;;3.83;0.65;;;14.00;99.90;;;;;;5029415;28;20117;-77
2023/09/25 06:42:41;;;;;;;0.10;0.10;;;14.10;99.90;;;;;;5033041;28;20085;-81
2023/09/25 06:45:08;;;;;;;0.10;0.10;;;14.20;99.90;;;;;;5092711;28;20019;-78
2023/09/25 06:47:34;;;;;;;2.28;0.45;;;14.20;99.90;;;;;;5060095;28;20030;-81
2023/09/25 06:50:00;;;;;;;0.40;0.40;;;14.30;99.90;;;;;;5037498;28;20026;-80
2023/09/25 06:52:26;;;;;;;0.10;0.10;;;14.30;99.90;;;;;;4998656;28;20059;-75
2023/09/25 06:54:52;;;;;;;0.10;0.10;;;14.20;99.90;;;;;;5015478;28;20386;-80
2023/09/25 06:57:18;;;;;;;1.13;0.52;;;14.30;99.90;;;;;;5059850;28;20031;-79
2023/09/25 06:59:44;;;;;;;0.10;0.10;;;14.30;99.90;;;;;;5072155;28;20024;-80
2023/09/25 07:02:10;;;;;;;1.27;1.17;;;14.30;99.90;;;;;;5059050;28;20048;-80
2023/09/25 07:04:37;;;;;;;0.03;0.03;;;14.30;99.90;;;;;;5063934;28;20098;-76
2023/09/25 07:07:03;;;;;;;0.38;0.20;;;14.30;99.90;;;;;;5005546;28;20031;-80
2023/09/25 07:09:29;;;;;;;0.20;0.20;;;14.30;99.90;;;;;;5019068;28;20037;-81
2023/09/25 07:11:55;;;;;;;1.30;0.63;;;14.40;99.90;;;;;;5056549;28;20026;-80
2023/09/25 07:14:21;;;;;;;1.00;0.57;;;14.50;99.90;;;;;;5054134;28;20094;-80
2023/09/25 07:16:47;;;;;;;0.10;0.10;;;14.60;99.90;;;;;;5029356;28;20038;-79
2023/09/25 07:19:13;;;;;;;0.90;0.90;;;14.60;99.90;;;;;;5015675;28;20459;-80
2023/09/25 07:21:41;;;;;;;0.10;0.10;;;14.60;99.90;;;;;;5046988;28;20029;-80
2023/09/25 07:24:07;;;;;;;0.08;0.08;;;14.60;99.90;;;;;;5030208;28;20043;-80
2023/09/25 07:26:33;;;;;;;2.15;0.77;;;14.70;99.90;;;;;;5030585;28;20035;-80
2023/09/25 07:28:59;;;;;;;0.00;0.00;;;14.90;99.90;;;;;;5031162;28;20024;-77
2023/09/25 07:31:26;;;;;;;0.35;0.25;;;14.90;99.90;;;;;;5034761;28;20042;-76
2023/09/25 07:33:55;;;;;;;1.77;0.65;;;15.00;99.90;;;;;;5024354;28;20050;-79
2023/09/25 07:36:21;;;;;;;2.20;0.35;;;15.10;99.90;;;;;;5066807;28;20371;-76
2023/09/25 07:38:48;;;;;;;0.22;0.22;;;15.20;99.90;;;;;;5048826;28;20027;-79
2023/09/25 07:41:14;;;;;;;0.00;0.00;;;15.30;99.90;;;;;;5023268;28;20022;-79
2023/09/25 07:43:41;;;;;;;0.10;0.10;;;15.40;99.90;;;;;;5022299;28;20105;-79
2023/09/25 07:46:07;;;;;;;0.00;0.00;;;15.70;99.90;;;;;;5022568;28;20109;-80
2023/09/25 07:48:39;;;;;;;0.10;0.10;;;15.80;99.90;;;;;;5017550;28;20024;-80
2023/09/25 07:51:07;;;;;;;;;;;15.90;99.90;;;;;;5027419;28;20021;-80
2023/09/25 07:53:34;;;;;;;1.13;0.85;;;15.90;99.90;;;;;;5017207;28;20296;-80
2023/09/25 07:56:02;;;;;;;0.10;0.10;;;16.00;99.90;;;;;;5069251;28;20030;-74
2023/09/25 07:58:28;;;;;;;0.52;0.47;;;15.90;99.90;;;;;;5069749;28;20070;-75
2023/09/25 08:01:00;;;;;;;0.10;0.10;;;15.80;99.90;;;;;;5088915;28;20059;-75
2023/09/25 08:03:25;;;;;;;;;;;15.90;99.90;;;;;;5055238;28;20087;-80
2023/09/25 08:05:54;;;;;;;0.30;0.30;;;16.00;99.90;;;;;;5032387;28;19910;-76
2023/09/25 08:08:20;;;;;;;0.20;0.20;;;16.10;99.90;;;;;;5026526;28;20026;-80
2023/09/25 08:10:47;;;;;;;0.00;0.00;;;16.20;99.90;;;;;;5095997;28;20173;-74
2023/09/25 08:13:15;;;;;;;0.05;0.05;;;16.30;99.90;;;;;;5080317;28;20024;-75
2023/09/25 08:15:40;;;;;;;3.38;1.38;;;16.30;99.90;;;;;;5041113;28;20022;-81
2023/09/25 08:18:06;;;;;;;0.52;0.50;;;16.40;99.90;;;;;;5027958;28;20030;-79
2023/09/25 08:20:32;;;;;;;0.25;0.20;;;16.60;99.90;;;;;;5032159;28;20023;-87
2023/09/25 08:22:59;;;;;;;2.15;0.43;;;16.50;99.90;;;;;;5033372;28;20420;-80
2023/09/25 08:25:24;;;;;;;1.23;0.98;;;16.70;99.90;;;;;;5012030;28;20022;-79
2023/09/25 08:27:51;;;;;;;2.78;0.93;;;16.80;99.90;;;;;;5036535;28;20577;-81
2023/09/25 08:30:18;;;;;;;0.10;0.10;;;16.80;99.90;;;;;;5029760;28;20029;-75
2023/09/25 08:32:45;;;;;;;0.00;0.00;;;17.00;99.90;;;;;;5063510;28;20039;-76
2023/09/25 08:35:11;;;;;;;0.40;0.40;;;17.10;99.90;;;;;;5074189;28;20047;-82
2023/09/25 08:37:38;;;;;;;0.38;0.20;;;17.20;99.90;;;;;;5036693;28;20022;-82
2023/09/25 08:40:05;;;;;;;0.15;0.15;;;17.10;99.90;;;;;;5023930;28;20034;-83
2023/09/25 08:42:31;;;;;;;0.40;0.40;;;17.20;99.90;;;;;;5027659;28;20024;-78
2023/09/25 08:45:00;;;;;;;0.00;0.00;;;17.10;99.90;;;;;;5073115;28;20035;-81
2023/09/25 08:47:28;;;;;;;0.73;0.30;;;17.30;99.90;;;;;;5054378;28;20022;-75
2023/09/25 08:49:55;;;;;;;0.45;0.22;;;17.30;99.90;;;;;;5032546;28;20030;-74
2023/09/25 08:52:22;;;;;;;0.28;0.20;;;17.30;99.90;;;;;;5023896;28;20382;-79
2023/09/25 08:54:49;;;;;;;0.00;0.00;;;17.50;99.90;;;;;;5044019;28;20020;-75
2023/09/25 08:57:15;;;;;;;0.05;0.05;;;17.90;99.90;;;;;;5080204;28;20110;-75
2023/09/25 08:59:45;;;;;;;0.17;0.17;;;18.10;99.90;;;;;;5069701;28;20086;-76
2023/09/25 09:02:12;;;;;;;1.35;0.63;;;18.10;99.90;;;;;;5015959;28;20037;-75
2023/09/25 09:04:38;;;;;;;2.95;0.22;;;17.90;99.90;;;;;;5060991;28;20034;-75
2023/09/25 09:07:05;;;;;;;0.43;0.20;;;17.90;99.90;;;;;;5018649;28;20021;-76
2023/09/25 09:09:34;;;;;;;5.20;0.32;;;18.00;99.90;;;;;;5037068;28;20044;-75
2023/09/25 09:12:00;;;;;;;0.50;0.40;;;18.40;99.90;;;;;;5024050;28;20021;-80
2023/09/25 09:14:32;;;;;;;0.10;0.10;;;18.20;99.90;;;;;;5022143;28;20398;-75
2023/09/25 09:16:58;;;;;;;0.10;0.10;;;18.20;99.90;;;;;;5038233;28;20037;-76
2023/09/25 09:19:24;;;;;;;1.45;0.45;;;18.30;99.90;;;;;;5014210;28;20110;-81
2023/09/25 09:22:07;;;;;;;0.63;0.60;;;18.40;99.90;;;;;;5032539;28;20079;-82
2023/09/25 09:24:37;;;;;;;0.25;0.25;;;18.40;99.90;;;;;;5025450;28;20582;-75
2023/09/25 09:27:09;;;;;;;0.63;0.50;;;18.60;99.90;;;;;;5052501;28;20019;-82
2023/09/25 09:29:42;;;;;;;2.92;0.65;;;18.80;99.90;;;;;;5022573;28;20505;-80
2023/09/25 09:32:09;;;;;;;0.00;0.00;;;18.70;99.90;;;;;;5041197;28;20130;-77
2023/09/25 09:34:37;;;;;;;0.08;0.08;;;18.70;99.90;;;;;;5032192;28;20476;-75
2023/09/25 09:37:08;;;;;;;0.10;0.10;;;18.80;99.90;;;;;;5008724;28;20090;-80
2023/09/25 09:39:35;;;;;;;2.28;0.40;;;18.80;99.90;;;;;;5010201;28;20030;-75
2023/09/25 09:42:07;;;;;;;1.48;1.38;;;18.90;99.90;;;;;;5010722;28;20022;-82
2023/09/25 09:44:33;;;;;;;1.40;1.00;;;18.80;99.90;;;;;;5010052;28;20037;-75
2023/09/25 09:47:07;;;;;;;0.40;0.28;;;18.80;99.90;;;;;;5009556;28;20105;-76
2023/09/25 09:49:41;;;;;;;0.68;0.32;;;18.80;99.90;;;;;;5010647;28;20034;-81
2023/09/25 09:52:07;;;;;;;0.10;0.10;;;18.80;99.90;;;;;;5003765;28;20048;-75
2023/09/25 09:54:42;;;;;;;0.10;0.10;;;19.00;99.90;;;;;;5010726;28;20049;-81
2023/09/25 09:57:09;;;;;;;0.10;0.10;;;19.00;99.90;;;;;;5003115;28;20038;-80
2023/09/25 09:59:35;;;;;;;0.00;0.00;;;18.90;99.90;;;;;;5010267;28;20079;-81
2023/09/25 10:02:02;;;;;;;0.10;0.10;;;19.10;99.90;;;;;;5015237;28;20033;-76
2023/09/25 10:04:29;;;;;;;4.15;1.13;;;19.30;99.90;;;;;;5017665;28;20022;-81
2023/09/25 10:07:04;;;;;;;0.52;0.30;;;19.50;99.90;;;;;;5010250;28;20060;-80
2023/09/25 10:09:31;;;;;;;3.55;1.55;;;19.70;99.90;;;;;;5010438;28;20421;-81
2023/09/25 10:11:58;;;;;;;13.25;1.00;;;19.60;99.90;;;;;;5010169;28;20034;-79
2023/09/25 10:14:30;;;;;;;0.00;0.00;;;19.40;99.90;;;;;;5010225;28;20046;-75
2023/09/25 10:17:02;;;;;;;0.00;0.00;;;19.60;99.90;;;;;;5010092;28;20124;-81
2023/09/25 10:19:37;;;;;;;0.20;0.17;;;19.80;99.90;;;;;;5010342;28;20030;-81
2023/09/25 10:22:15;;;;;;;0.45;0.40;;;19.70;99.90;;;;;;5010128;28;20068;-82
2023/09/25 10:24:42;;;;;;;0.57;0.22;;;19.90;99.90;;;;;;5010301;28;20040;-81
2023/09/25 10:27:13;;;;;;;4.50;0.65;;;20.00;99.90;;;;;;5008465;28;20543;-77
2023/09/25 10:29:39;;;;;;;3.97;0.40;;;20.30;99.90;;;;;;5025920;28;20030;-77
2023/09/25 10:32:14;;;;;;;0.45;0.25;;;20.20;99.90;;;;;;5012768;28;20529;-80
2023/09/25 10:34:41;;;;;;;1.65;0.98;;;20.20;99.90;;;;;;4998980;28;20083;-77
2023/09/25 10:37:07;;;;;;;2.50;0.77;;;20.30;99.90;;;;;;5008508;28;20040;-80
2023/09/25 10:39:34;;;;;;;0.40;0.40;;;20.60;99.90;;;;;;4998974;28;20394;-81
2023/09/25 10:42:08;;;;;;;0.00;0.00;;;20.60;99.90;;;;;;5009002;28;20105;-82
2023/09/25 10:44:36;;;;;;;0.05;0.05;;;20.80;99.90;;;;;;5005885;28;20030;-82
2023/09/25 10:47:09;;;;;;;0.13;0.13;;;20.90;99.90;;;;;;5009640;28;20025;-80
2023/09/25 10:49:36;;;;;;;0.28;0.28;;;20.80;99.90;;;;;;5005237;28;20481;-78
2023/09/25 10:52:03;;;;;;;2.97;1.23;;;21.30;99.90;;;;;;5008363;28;20018;-81
2023/09/25 10:54:30;;;;;;;1.88;0.50;;;21.70;99.90;;;;;;5009724;28;20030;-82
2023/09/25 10:56:59;;;;;;;0.10;0.10;;;21.70;99.90;;;;;;5009149;28;20046;-83
2023/09/25 10:59:26;;;;;;;0.00;0.00;;;21.50;99.90;;;;;;5009882;28;20467;-82
2023/09/25 11:01:52;;;;;;;0.00;0.00;;;21.60;99.90;;;;;;5009612;28;20034;-82
2023/09/25 11:04:18;;;;;;;0.52;0.40;;;22.00;99.90;;;;;;5009332;28;20420;-82
2023/09/25 11:06:45;;;;;;;0.40;0.30;;;21.60;99.90;;;;;;5009785;28;20014;-82
2023/09/25 11:09:17;;;;;;;0.30;0.30;;;21.80;99.90;;;;;;5009621;28;20022;-81
2023/09/25 11:11:46;;;;;;;1.70;0.77;;;21.70;99.90;;;;;;5009296;28;20034;-81
2023/09/25 11:14:12;;;;;;;1.42;0.20;;;21.80;99.90;;;;;;5008475;28;20045;-83
2023/09/25 11:16:39;;;;;;;0.45;0.25;;;21.70;99.90;;;;;;5009383;28;20040;-82
2023/09/25 11:19:13;;;;;;;0.93;0.17;;;21.70;99.90;;;;;;5008365;28;20409;-83
2023/09/25 11:21:41;;;;;;;0.65;0.40;;;22.00;99.90;;;;;;5009466;28;20033;-76
2023/09/25 11:24:09;;;;;;;0.63;0.52;;;22.30;99.90;;;;;;5009482;28;20497;-75
2023/09/25 11:26:36;;;;;;;0.00;0.00;;;22.00;99.90;;;;;;5009306;28;20078;-82
2023/09/25 11:29:08;;;;;;;1.52;0.47;;;22.60;99.90;;;;;;5009301;28;20104;-76
2023/09/25 11:31:38;;;;;;;0.00;0.00;;;22.40;99.90;;;;;;5008543;28;20086;-82
2023/09/25 11:34:07;;;;;;;0.10;0.10;;;22.80;99.90;;;;;;5009282;28;20509;-80
2023/09/25 11:36:34;;;;;;;0.00;0.00;;;22.70;99.90;;;;;;5009416;28;20094;-82
2023/09/25 11:39:01;;;;;;;0.63;0.38;;;23.20;99.80;;;;;;5010691;28;20029;-81
2023/09/25 11:41:26;;;;;;;0.82;0.52;;;22.70;99.90;;;;;;5011269;28;20026;-81
2023/09/25 11:43:52;;;;;;;0.20;0.20;;;22.90;99.90;;;;;;5012442;28;20029;-82
2023/09/25 11:46:18;;;;;;;1.38;1.27;;;23.10;99.80;;;;;;5011486;28;20030;-77
2023/09/25 11:48:44;;;;;;;0.47;0.47;;;23.10;99.90;;;;;;5012604;28;20037;-82
2023/09/25 11:51:10;;;;;;;0.00;0.00;;;23.40;99.50;;;;;;5012469;28;20474;-82
2023/09/25 11:53:36;;;;;;;2.72;1.35;;;23.60;99.20;;;;;;5012460;28;20046;-80
2023/09/25 11:56:03;;;;;;;0.00;0.00;;;23.70;99.10;;;;;;5010943;28;20033;-82
2023/09/25 11:58:29;;;;;;;3.30;0.68;;;23.80;98.70;;;;;;5012377;28;20026;-75
2023/09/25 12:00:55;;;;;;;1.52;0.90;;;24.00;98.00;;;;;;5012359;28;20033;-82
2023/09/25 12:03:21;;;;;;;0.00;0.00;;;23.60;98.70;;;;;;5012080;28;20040;-76
2023/09/25 12:05:47;;;;;;;0.40;0.30;;;23.20;99.80;;;;;;5012186;28;20041;-80
2023/09/25 12:08:13;;;;;;;0.82;0.77;;;23.30;99.70;;;;;;5011975;28;20029;-82
2023/09/25 12:10:39;;;;;;;1.42;0.60;;;24.00;99.50;;;;;;5012090;28;20082;-82
2023/09/25 12:13:06;;;;;;;0.82;0.32;;;23.70;98.80;;;;;;5012350;28;20035;-75
2023/09/25 12:15:32;;;;;;;0.00;0.00;;;23.70;98.90;;;;;;5012039;28;20088;-83
2023/09/25 12:17:57;;;;;;;2.30;0.10;;;23.90;98.20;;;;;;5012040;28;20472;-76
2023/09/25 12:20:24;;;;;;;0.00;0.00;;;24.40;98.10;;;;;;5014280;28;20458;-82
2023/09/25 12:22:52;;;;;;;0.60;0.60;;;24.80;97.20;;;;;;5011708;28;20018;-82
2023/09/25 12:25:19;;;;;;;0.30;0.30;;;25.20;96.20;;;;;;5012115;28;20140;-81
2023/09/25 12:27:46;;;;;;;0.00;0.00;;;25.00;96.70;;;;;;5012090;28;20174;-81
2023/09/25 12:30:17;;;;;;;0.30;0.30;;;25.10;97.10;;;;;;5011764;28;20026;-78
2023/09/25 12:32:47;;;;;;;1.23;1.05;;;24.40;97.00;;;;;;5010879;28;20126;-81
2023/09/25 12:35:15;;;;;;;1.20;0.68;;;23.60;97.00;;;;;;5011858;28;20038;-83
2023/09/25 12:37:45;;;;;;;0.00;0.00;;;24.30;97.20;;;;;;5011893;28;20489;-81
2023/09/25 12:40:13;;;;;;;0.22;0.22;;;25.20;96.80;;;;;;5011547;28;20067;-79
2023/09/25 12:42:40;;;;;;;0.35;0.20;;;24.90;96.30;;;;;;5011599;28;20030;-83
2023/09/25 12:45:06;;;;;;;0.80;0.38;;;24.60;96.40;;;;;;5010594;28;20464;-76
2023/09/25 12:47:33;;;;;;;0.00;0.00;;;24.40;95.60;;;;;;5011916;28;20105;-81
2023/09/25 12:49:59;;;;;;;0.70;0.40;;;24.40;97.50;;;;;;5010314;28;20046;-80